sensor_id;sensor_type;location;lat;lon;timestamp;temperature;humidity
26479;DHT22;14163;-26.142;27.992;2023-03-16T00:00:39;24.40;99.90
26479;DHT22;14163;-26.142;27.992;2023-03-16T00:03:10;24.40;99.90
26479;DHT22;14163;-26.142;27.992;2023-03-16T00:05:45;24.40;99.90
26479;DHT22;14163;-26.142;27.992;2023-03-16T00:08:15;24.30;99.90
26479;DHT22;14163;-26.142;27.992;2023-03-16T00:10:46;24.40;99.90
26479;DHT22;14163;-26.142;27.992;2023-03-16T00:13:21;24.30;99.90
26479;DHT22;14163;-26.142;27.992;2023-03-16T00:15:52;24.40;99.90
26479;DHT22;14163;-26.142;27.992;2023-03-16T00:18:26;24.40;99.90
26479;DHT22;14163;-26.142;27.992;2023-03-16T00:21:00;24.50;99.90
26479;DHT22;14163;-26.142;27.992;2023-03-16T00:23:31;24.30;99.90
26479;DHT22;14163;-26.142;27.992;2023-03-16T00:26:03;24.30;99.90
26479;DHT22;14163;-26.142;27.992;2023-03-16T00:28:33;24.20;99.90
26479;DHT22;14163;-26.142;27.992;2023-03-16T00:31:04;24.30;99.90
26479;DHT22;14163;-26.142;27.992;2023-03-16T00:33:36;24.40;99.90
26479;DHT22;14163;-26.142;27.992;2023-03-16T00:36:06;24.40;99.90
26479;DHT22;14163;-26.142;27.992;2023-03-16T00:38:39;24.40;99.90
26479;DHT22;14163;-26.142;27.992;2023-03-16T00:41:11;24.40;99.90
26479;DHT22;14163;-26.142;27.992;2023-03-16T00:43:42;24.40;99.90
26479;DHT22;14163;-26.142;27.992;2023-03-16T00:46:13;24.40;99.90
26479;DHT22;14163;-26.142;27.992;2023-03-16T00:48:45;24.40;99.90
26479;DHT22;14163;-26.142;27.992;2023-03-16T00:51:16;24.40;99.90
26479;DHT22;14163;-26.142;27.992;2023-03-16T00:53:46;24.30;99.90
26479;DHT22;14163;-26.142;27.992;2023-03-16T00:56:16;24.30;99.90
26479;DHT22;14163;-26.142;27.992;2023-03-16T00:58:46;24.30;99.90
26479;DHT22;14163;-26.142;27.992;2023-03-16T01:01:17;24.30;99.90
26479;DHT22;14163;-26.142;27.992;2023-03-16T01:03:48;24.30;99.90
26479;DHT22;14163;-26.142;27.992;2023-03-16T01:06:17;24.30;99.90
26479;DHT22;14163;-26.142;27.992;2023-03-16T01:08:48;24.10;99.90
26479;DHT22;14163;-26.142;27.992;2023-03-16T01:11:20;24.20;99.90
26479;DHT22;14163;-26.142;27.992;2023-03-16T01:13:50;24.10;99.90
26479;DHT22;14163;-26.142;27.992;2023-03-16T01:16:20;24.10;99.90
26479;DHT22;14163;-26.142;27.992;2023-03-16T01:18:53;24.10;99.90
26479;DHT22;14163;-26.142;27.992;2023-03-16T01:21:23;24.10;99.90
26479;DHT22;14163;-26.142;27.992;2023-03-16T01:23:53;24.00;99.90
26479;DHT22;14163;-26.142;27.992;2023-03-16T01:26:22;24.00;99.90
26479;DHT22;14163;-26.142;27.992;2023-03-16T01:28:52;24.00;99.90
26479;DHT22;14163;-26.142;27.992;2023-03-16T01:31:21;24.00;99.90
26479;DHT22;14163;-26.142;27.992;2023-03-16T01:33:52;23.90;99.90
26479;DHT22;14163;-26.142;27.992;2023-03-16T01:36:21;23.70;99.90
26479;DHT22;14163;-26.142;27.992;2023-03-16T01:38:50;23.40;99.90
26479;DHT22;14163;-26.142;27.992;2023-03-16T01:41:20;23.50;99.90
26479;DHT22;14163;-26.142;27.992;2023-03-16T01:43:49;23.70;99.90
26479;DHT22;14163;-26.142;27.992;2023-03-16T01:46:25;23.80;99.90
26479;DHT22;14163;-26.142;27.992;2023-03-16T01:49:11;23.80;99.90
26479;DHT22;14163;-26.142;27.992;2023-03-16T01:51:44;23.80;99.90
26479;DHT22;14163;-26.142;27.992;2023-03-16T01:54:22;23.70;99.90
26479;DHT22;14163;-26.142;27.992;2023-03-16T01:56:59;23.60;99.90
26479;DHT22;14163;-26.142;27.992;2023-03-16T01:59:33;23.60;99.90
26479;DHT22;14163;-26.142;27.992;2023-03-16T04:15:30;21.20;99.90
26479;DHT22;14163;-26.142;27.992;2023-03-16T04:18:01;18.50;99.90
26479;DHT22;14163;-26.142;27.992;2023-03-16T04:20:30;19.10;99.90
26479;DHT22;14163;-26.142;27.992;2023-03-16T04:22:59;19.90;99.90
26479;DHT22;14163;-26.142;27.992;2023-03-16T04:25:28;20.60;99.90
26479;DHT22;14163;-26.142;27.992;2023-03-16T04:27:57;21.10;99.90
26479;DHT22;14163;-26.142;27.992;2023-03-16T04:30:29;21.50;99.90
26479;DHT22;14163;-26.142;27.992;2023-03-16T04:32:59;21.80;99.90
26479;DHT22;14163;-26.142;27.992;2023-03-16T04:35:29;22.10;99.90
26479;DHT22;14163;-26.142;27.992;2023-03-16T04:37:58;22.20;99.90
26479;DHT22;14163;-26.142;27.992;2023-03-16T04:40:28;22.40;99.90
26479;DHT22;14163;-26.142;27.992;2023-03-16T04:42:57;22.60;99.90
26479;DHT22;14163;-26.142;27.992;2023-03-16T04:45:28;22.70;99.90
26479;DHT22;14163;-26.142;27.992;2023-03-16T04:47:58;22.80;99.90
26479;DHT22;14163;-26.142;27.992;2023-03-16T04:50:27;22.80;99.90
26479;DHT22;14163;-26.142;27.992;2023-03-16T04:52:56;22.90;99.90
26479;DHT22;14163;-26.142;27.992;2023-03-16T04:55:26;22.90;99.90
26479;DHT22;14163;-26.142;27.992;2023-03-16T04:57:55;22.90;99.90
26479;DHT22;14163;-26.142;27.992;2023-03-16T05:00:24;22.90;99.90
26479;DHT22;14163;-26.142;27.992;2023-03-16T05:02:55;23.00;99.90
26479;DHT22;14163;-26.142;27.992;2023-03-16T05:05:24;23.00;99.90
26479;DHT22;14163;-26.142;27.992;2023-03-16T05:07:53;23.00;99.90
26479;DHT22;14163;-26.142;27.992;2023-03-16T05:10:22;23.00;99.90
26479;DHT22;14163;-26.142;27.992;2023-03-16T05:12:52;23.00;99.90
26479;DHT22;14163;-26.142;27.992;2023-03-16T05:15:21;23.10;99.90
26479;DHT22;14163;-26.142;27.992;2023-03-16T05:17:50;23.00;99.90
26479;DHT22;14163;-26.142;27.992;2023-03-16T05:20:21;23.10;99.90
26479;DHT22;14163;-26.142;27.992;2023-03-16T05:22:51;23.10;99.90
26479;DHT22;14163;-26.142;27.992;2023-03-16T05:25:20;23.20;99.90
26479;DHT22;14163;-26.142;27.992;2023-03-16T05:27:51;23.20;99.90
26479;DHT22;14163;-26.142;27.992;2023-03-16T05:30:20;23.20;99.90
26479;DHT22;14163;-26.142;27.992;2023-03-16T05:32:50;23.20;99.90
26479;DHT22;14163;-26.142;27.992;2023-03-16T05:35:22;23.10;99.90
26479;DHT22;14163;-26.142;27.992;2023-03-16T05:37:51;23.00;99.90
26479;DHT22;14163;-26.142;27.992;2023-03-16T05:40:20;23.10;99.90
26479;DHT22;14163;-26.142;27.992;2023-03-16T05:42:54;23.20;99.90
26479;DHT22;14163;-26.142;27.992;2023-03-16T05:45:24;23.30;99.90
26479;DHT22;14163;-26.142;27.992;2023-03-16T05:47:53;23.20;99.90
26479;DHT22;14163;-26.142;27.992;2023-03-16T05:50:24;23.30;99.90
26479;DHT22;14163;-26.142;27.992;2023-03-16T05:52:54;23.10;99.90
26479;DHT22;14163;-26.142;27.992;2023-03-16T05:55:23;22.60;99.90
26479;DHT22;14163;-26.142;27.992;2023-03-16T05:57:53;22.30;99.90
26479;DHT22;14163;-26.142;27.992;2023-03-16T06:00:22;22.30;99.90
26479;DHT22;14163;-26.142;27.992;2023-03-16T06:02:53;22.10;99.90
26479;DHT22;14163;-26.142;27.992;2023-03-16T06:05:24;21.80;99.90
26479;DHT22;14163;-26.142;27.992;2023-03-16T06:07:54;21.80;99.90
26479;DHT22;14163;-26.142;27.992;2023-03-16T06:10:23;21.80;99.90
26479;DHT22;14163;-26.142;27.992;2023-03-16T06:12:53;21.90;99.90
26479;DHT22;14163;-26.142;27.992;2023-03-16T06:15:22;22.00;99.90
26479;DHT22;14163;-26.142;27.992;2023-03-16T06:17:52;22.30;99.90
26479;DHT22;14163;-26.142;27.992;2023-03-16T06:20:23;22.40;99.90
26479;DHT22;14163;-26.142;27.992;2023-03-16T06:22:53;22.70;99.90
26479;DHT22;14163;-26.142;27.992;2023-03-16T06:25:22;22.30;99.90
26479;DHT22;14163;-26.142;27.992;2023-03-16T06:27:52;22.60;99.90
26479;DHT22;14163;-26.142;27.992;2023-03-16T06:30:22;22.70;99.90
26479;DHT22;14163;-26.142;27.992;2023-03-16T06:32:51;22.50;99.90
26479;DHT22;14163;-26.142;27.992;2023-03-16T06:35:20;22.40;99.90
26479;DHT22;14163;-26.142;27.992;2023-03-16T06:37:51;22.90;99.90
26479;DHT22;14163;-26.142;27.992;2023-03-16T06:40:20;23.20;99.90
26479;DHT22;14163;-26.142;27.992;2023-03-16T06:42:49;22.70;99.90
26479;DHT22;14163;-26.142;27.992;2023-03-16T06:45:19;22.70;99.90
26479;DHT22;14163;-26.142;27.992;2023-03-16T06:47:49;22.70;99.90
26479;DHT22;14163;-26.142;27.992;2023-03-16T06:50:19;23.00;99.90
26479;DHT22;14163;-26.142;27.992;2023-03-16T06:52:50;23.30;99.90
26479;DHT22;14163;-26.142;27.992;2023-03-16T06:55:19;23.50;99.90
26479;DHT22;14163;-26.142;27.992;2023-03-16T06:57:48;23.60;99.90
26479;DHT22;14163;-26.142;27.992;2023-03-16T07:00:18;23.40;99.90
26479;DHT22;14163;-26.142;27.992;2023-03-16T07:02:47;23.60;99.90
26479;DHT22;14163;-26.142;27.992;2023-03-16T07:05:16;23.90;99.90
26479;DHT22;14163;-26.142;27.992;2023-03-16T07:07:46;24.10;99.90
26479;DHT22;14163;-26.142;27.992;2023-03-16T07:10:17;24.30;99.90
26479;DHT22;14163;-26.142;27.992;2023-03-16T07:12:47;24.50;99.90
26479;DHT22;14163;-26.142;27.992;2023-03-16T07:15:16;24.50;99.90
26479;DHT22;14163;-26.142;27.992;2023-03-16T07:17:45;24.60;99.90
26479;DHT22;14163;-26.142;27.992;2023-03-16T07:20:14;24.60;99.90
26479;DHT22;14163;-26.142;27.992;2023-03-16T07:22:44;24.70;99.90
26479;DHT22;14163;-26.142;27.992;2023-03-16T07:25:13;24.80;99.90
26479;DHT22;14163;-26.142;27.992;2023-03-16T07:27:44;24.70;99.90
26479;DHT22;14163;-26.142;27.992;2023-03-16T07:30:13;24.50;99.90
26479;DHT22;14163;-26.142;27.992;2023-03-16T07:32:43;24.40;99.90
26479;DHT22;14163;-26.142;27.992;2023-03-16T07:35:12;24.40;99.90
26479;DHT22;14163;-26.142;27.992;2023-03-16T07:37:41;24.50;99.90
26479;DHT22;14163;-26.142;27.992;2023-03-16T07:40:11;24.70;99.90
26479;DHT22;14163;-26.142;27.992;2023-03-16T07:42:42;24.70;99.90
26479;DHT22;14163;-26.142;27.992;2023-03-16T07:45:12;24.90;99.90
26479;DHT22;14163;-26.142;27.992;2023-03-16T07:47:41;24.90;99.90
26479;DHT22;14163;-26.142;27.992;2023-03-16T07:50:11;24.90;99.90
26479;DHT22;14163;-26.142;27.992;2023-03-16T07:52:42;24.80;99.90
26479;DHT22;14163;-26.142;27.992;2023-03-16T07:55:12;24.60;99.90
26479;DHT22;14163;-26.142;27.992;2023-03-16T07:57:43;24.60;99.90
26479;DHT22;14163;-26.142;27.992;2023-03-16T08:00:14;24.30;99.90
26479;DHT22;14163;-26.142;27.992;2023-03-16T08:02:49;24.70;99.90
26479;DHT22;14163;-26.142;27.992;2023-03-16T08:05:19;24.70;99.90
26479;DHT22;14163;-26.142;27.992;2023-03-16T08:07:48;24.70;99.90
26479;DHT22;14163;-26.142;27.992;2023-03-16T08:10:18;24.90;99.90
26479;DHT22;14163;-26.142;27.992;2023-03-16T08:12:49;24.40;99.90
26479;DHT22;14163;-26.142;27.992;2023-03-16T08:15:19;24.40;99.90
26479;DHT22;14163;-26.142;27.992;2023-03-16T08:17:49;23.90;99.90
26479;DHT22;14163;-26.142;27.992;2023-03-16T08:20:18;23.90;99.90
26479;DHT22;14163;-26.142;27.992;2023-03-16T08:22:47;24.00;99.90
26479;DHT22;14163;-26.142;27.992;2023-03-16T08:25:16;24.00;99.90
26479;DHT22;14163;-26.142;27.992;2023-03-16T08:27:48;24.00;99.90
26479;DHT22;14163;-26.142;27.992;2023-03-16T08:30:19;24.10;99.90
26479;DHT22;14163;-26.142;27.992;2023-03-16T08:32:48;24.30;99.90
26479;DHT22;14163;-26.142;27.992;2023-03-16T08:35:18;24.10;99.90
26479;DHT22;14163;-26.142;27.992;2023-03-16T08:37:47;24.00;99.90
26479;DHT22;14163;-26.142;27.992;2023-03-16T08:40:16;24.10;99.90
26479;DHT22;14163;-26.142;27.992;2023-03-16T08:42:49;24.00;99.90
26479;DHT22;14163;-26.142;27.992;2023-03-16T08:45:20;23.70;99.90
26479;DHT22;14163;-26.142;27.992;2023-03-16T08:47:50;23.60;99.90
26479;DHT22;14163;-26.142;27.992;2023-03-16T08:50:19;23.80;99.90
26479;DHT22;14163;-26.142;27.992;2023-03-16T08:52:48;23.60;99.90
26479;DHT22;14163;-26.142;27.992;2023-03-16T08:55:18;23.60;99.90
26479;DHT22;14163;-26.142;27.992;2023-03-16T08:57:49;23.60;99.90
26479;DHT22;14163;-26.142;27.992;2023-03-16T09:00:19;23.70;99.90
26479;DHT22;14163;-26.142;27.992;2023-03-16T09:02:48;24.10;99.90
26479;DHT22;14163;-26.142;27.992;2023-03-16T09:05:18;24.10;99.90
26479;DHT22;14163;-26.142;27.992;2023-03-16T09:07:47;24.30;99.90
26479;DHT22;14163;-26.142;27.992;2023-03-16T09:10:17;24.50;99.90
26479;DHT22;14163;-26.142;27.992;2023-03-16T09:12:50;24.40;99.90
26479;DHT22;14163;-26.142;27.992;2023-03-16T09:15:20;24.20;99.90
26479;DHT22;14163;-26.142;27.992;2023-03-16T09:17:49;24.30;99.90
26479;DHT22;14163;-26.142;27.992;2023-03-16T09:20:20;24.50;99.90
26479;DHT22;14163;-26.142;27.992;2023-03-16T09:22:49;24.40;99.90
26479;DHT22;14163;-26.142;27.992;2023-03-16T09:25:18;24.40;99.90
26479;DHT22;14163;-26.142;27.992;2023-03-16T09:27:49;24.70;99.90
26479;DHT22;14163;-26.142;27.992;2023-03-16T09:30:19;24.90;99.90
26479;DHT22;14163;-26.142;27.992;2023-03-16T09:32:48;25.20;99.90
26479;DHT22;14163;-26.142;27.992;2023-03-16T09:35:18;25.30;99.90
26479;DHT22;14163;-26.142;27.992;2023-03-16T09:37:47;25.50;99.90
26479;DHT22;14163;-26.142;27.992;2023-03-16T09:40:22;25.60;99.90
26479;DHT22;14163;-26.142;27.992;2023-03-16T09:43:01;25.50;99.90
26479;DHT22;14163;-26.142;27.992;2023-03-16T09:45:36;25.70;99.90
26479;DHT22;14163;-26.142;27.992;2023-03-16T09:48:08;25.80;99.90
26479;DHT22;14163;-26.142;27.992;2023-03-16T09:50:39;25.50;99.90
26479;DHT22;14163;-26.142;27.992;2023-03-16T09:53:18;25.40;99.90
26479;DHT22;14163;-26.142;27.992;2023-03-16T09:55:54;25.30;99.90
26479;DHT22;14163;-26.142;27.992;2023-03-16T09:58:27;25.50;99.90
26479;DHT22;14163;-26.142;27.992;2023-03-16T10:01:04;25.80;99.90
26479;DHT22;14163;-26.142;27.992;2023-03-16T12:12:32;26.90;99.90
26479;DHT22;14163;-26.142;27.992;2023-03-16T12:15:34;28.20;99.90
26479;DHT22;14163;-26.142;27.992;2023-03-16T12:18:12;29.70;99.90
26479;DHT22;14163;-26.142;27.992;2023-03-16T12:20:50;30.50;99.90
26479;DHT22;14163;-26.142;27.992;2023-03-16T12:23:26;30.20;99.90
26479;DHT22;14163;-26.142;27.992;2023-03-16T12:25:57;30.90;99.90
26479;DHT22;14163;-26.142;27.992;2023-03-16T12:28:30;31.60;98.90
26479;DHT22;14163;-26.142;27.992;2023-03-16T12:31:08;31.60;96.20
26479;DHT22;14163;-26.142;27.992;2023-03-16T12:33:58;31.30;95.50
26479;DHT22;14163;-26.142;27.992;2023-03-16T12:36:57;31.30;93.80
26479;DHT22;14163;-26.142;27.992;2023-03-16T12:39:40;31.70;95.40
26479;DHT22;14163;-26.142;27.992;2023-03-16T12:42:21;32.00;95.10
26479;DHT22;14163;-26.142;27.992;2023-03-16T12:44:58;32.20;94.00
26479;DHT22;14163;-26.142;27.992;2023-03-16T12:47:32;32.30;96.40
26479;DHT22;14163;-26.142;27.992;2023-03-16T12:55:45;31.80;91.80
26479;DHT22;14163;-26.142;27.992;2023-03-16T12:58:16;31.40;91.90
26479;DHT22;14163;-26.142;27.992;2023-03-16T13:00:55;31.20;92.40
26479;DHT22;14163;-26.142;27.992;2023-03-16T13:03:26;31.00;90.20
26479;DHT22;14163;-26.142;27.992;2023-03-16T13:05:58;30.90;91.10
26479;DHT22;14163;-26.142;27.992;2023-03-16T13:08:40;31.20;92.30
26479;DHT22;14163;-26.142;27.992;2023-03-16T13:11:12;31.20;88.70
26479;DHT22;14163;-26.142;27.992;2023-03-16T13:13:52;30.70;89.10
26479;DHT22;14163;-26.142;27.992;2023-03-16T13:16:34;30.20;89.10
26479;DHT22;14163;-26.142;27.992;2023-03-16T13:19:22;29.60;88.50
26479;DHT22;14163;-26.142;27.992;2023-03-16T13:22:04;29.10;88.40
26479;DHT22;14163;-26.142;27.992;2023-03-16T13:24:50;28.70;88.90
26479;DHT22;14163;-26.142;27.992;2023-03-16T13:27:25;28.60;89.40
26479;DHT22;14163;-26.142;27.992;2023-03-16T13:29:57;28.40;89.20
26479;DHT22;14163;-26.142;27.992;2023-03-16T13:32:30;28.30;90.00
26479;DHT22;14163;-26.142;27.992;2023-03-16T13:35:01;28.20;89.70
26479;DHT22;14163;-26.142;27.992;2023-03-16T13:37:31;28.60;91.10
26479;DHT22;14163;-26.142;27.992;2023-03-16T13:40:01;29.10;90.80
26479;DHT22;14163;-26.142;27.992;2023-03-16T13:42:33;29.50;91.10
26479;DHT22;14163;-26.142;27.992;2023-03-16T13:45:12;29.90;89.00
26479;DHT22;14163;-26.142;27.992;2023-03-16T13:47:43;30.00;87.80
26479;DHT22;14163;-26.142;27.992;2023-03-16T13:50:13;30.00;88.20
26479;DHT22;14163;-26.142;27.992;2023-03-16T13:52:49;30.20;87.50
26479;DHT22;14163;-26.142;27.992;2023-03-16T13:55:25;30.20;86.00
26479;DHT22;14163;-26.142;27.992;2023-03-16T13:57:57;29.70;86.90
26479;DHT22;14163;-26.142;27.992;2023-03-16T14:00:29;29.50;87.70
26479;DHT22;14163;-26.142;27.992;2023-03-16T14:03:07;29.40;87.80
26479;DHT22;14163;-26.142;27.992;2023-03-16T14:05:37;29.10;87.20
26479;DHT22;14163;-26.142;27.992;2023-03-16T14:08:14;29.00;86.70
26479;DHT22;14163;-26.142;27.992;2023-03-16T14:10:45;28.90;87.00
26479;DHT22;14163;-26.142;27.992;2023-03-16T14:13:31;28.70;87.50
26479;DHT22;14163;-26.142;27.992;2023-03-16T14:16:10;28.50;87.10
26479;DHT22;14163;-26.142;27.992;2023-03-16T14:18:41;28.50;86.50
26479;DHT22;14163;-26.142;27.992;2023-03-16T14:21:14;28.50;87.00
26479;DHT22;14163;-26.142;27.992;2023-03-16T14:23:45;28.80;89.60
26479;DHT22;14163;-26.142;27.992;2023-03-16T14:26:16;29.10;90.20
26479;DHT22;14163;-26.142;27.992;2023-03-16T14:29:01;29.50;87.10
26479;DHT22;14163;-26.142;27.992;2023-03-16T14:31:34;29.80;89.30
26479;DHT22;14163;-26.142;27.992;2023-03-16T14:34:05;29.80;85.10
26479;DHT22;14163;-26.142;27.992;2023-03-16T14:36:36;29.70;85.40
26479;DHT22;14163;-26.142;27.992;2023-03-16T14:39:13;29.80;85.50
26479;DHT22;14163;-26.142;27.992;2023-03-16T14:41:42;29.80;84.30
26479;DHT22;14163;-26.142;27.992;2023-03-16T14:44:19;29.90;87.60
26479;DHT22;14163;-26.142;27.992;2023-03-16T14:46:50;30.20;87.00
26479;DHT22;14163;-26.142;27.992;2023-03-16T14:49:24;30.30;87.40
26479;DHT22;14163;-26.142;27.992;2023-03-16T14:51:57;30.40;87.20
26479;DHT22;14163;-26.142;27.992;2023-03-16T14:54:28;30.20;87.80
26479;DHT22;14163;-26.142;27.992;2023-03-16T14:57:00;30.30;87.10
26479;DHT22;14163;-26.142;27.992;2023-03-16T14:59:31;30.20;86.10
26479;DHT22;14163;-26.142;27.992;2023-03-16T15:02:01;30.20;87.30
26479;DHT22;14163;-26.142;27.992;2023-03-16T15:04:33;30.10;86.10
26479;DHT22;14163;-26.142;27.992;2023-03-16T15:07:19;30.10;86.50
26479;DHT22;14163;-26.142;27.992;2023-03-16T15:09:50;30.20;86.10
26479;DHT22;14163;-26.142;27.992;2023-03-16T15:12:20;30.20;84.40
26479;DHT22;14163;-26.142;27.992;2023-03-16T15:14:52;30.10;85.70
26479;DHT22;14163;-26.142;27.992;2023-03-16T15:17:38;30.10;88.20
26479;DHT22;14163;-26.142;27.992;2023-03-16T15:20:09;30.00;85.20
26479;DHT22;14163;-26.142;27.992;2023-03-16T15:22:39;29.70;85.00
26479;DHT22;14163;-26.142;27.992;2023-03-16T15:25:19;29.80;88.30
26479;DHT22;14163;-26.142;27.992;2023-03-16T15:27:49;30.00;88.10
26479;DHT22;14163;-26.142;27.992;2023-03-16T15:30:23;30.10;88.00
26479;DHT22;14163;-26.142;27.992;2023-03-16T15:32:52;30.20;87.20
26479;DHT22;14163;-26.142;27.992;2023-03-16T15:35:22;30.20;87.10
26479;DHT22;14163;-26.142;27.992;2023-03-16T15:37:51;30.10;83.70
26479;DHT22;14163;-26.142;27.992;2023-03-16T15:40:22;30.00;85.10
26479;DHT22;14163;-26.142;27.992;2023-03-16T15:42:52;30.00;87.60
26479;DHT22;14163;-26.142;27.992;2023-03-16T15:45:23;30.00;86.80
26479;DHT22;14163;-26.142;27.992;2023-03-16T15:47:53;29.90;86.10
26479;DHT22;14163;-26.142;27.992;2023-03-16T15:50:22;29.80;86.50
26479;DHT22;14163;-26.142;27.992;2023-03-16T15:52:54;29.80;88.10
26479;DHT22;14163;-26.142;27.992;2023-03-16T15:55:30;29.90;90.20
26479;DHT22;14163;-26.142;27.992;2023-03-16T15:58:01;29.70;90.70
26479;DHT22;14163;-26.142;27.992;2023-03-16T16:00:33;29.60;91.20
26479;DHT22;14163;-26.142;27.992;2023-03-16T16:03:05;29.50;91.60
26479;DHT22;14163;-26.142;27.992;2023-03-16T16:05:36;29.70;91.90
26479;DHT22;14163;-26.142;27.992;2023-03-16T16:08:06;29.80;91.70
26479;DHT22;14163;-26.142;27.992;2023-03-16T16:10:35;29.70;92.10
26479;DHT22;14163;-26.142;27.992;2023-03-16T16:13:07;29.60;92.40
26479;DHT22;14163;-26.142;27.992;2023-03-16T16:15:40;29.60;92.60
26479;DHT22;14163;-26.142;27.992;2023-03-16T16:18:26;29.70;92.90
26479;DHT22;14163;-26.142;27.992;2023-03-16T16:20:57;29.60;92.90
26479;DHT22;14163;-26.142;27.992;2023-03-16T16:23:27;29.60;92.80
26479;DHT22;14163;-26.142;27.992;2023-03-16T16:25:58;29.60;93.00
26479;DHT22;14163;-26.142;27.992;2023-03-16T16:28:30;29.40;93.30
26479;DHT22;14163;-26.142;27.992;2023-03-16T16:31:01;29.30;93.20
26479;DHT22;14163;-26.142;27.992;2023-03-16T16:33:32;29.20;93.30
26479;DHT22;14163;-26.142;27.992;2023-03-16T16:36:05;29.20;93.10
26479;DHT22;14163;-26.142;27.992;2023-03-16T16:38:35;29.10;93.20
26479;DHT22;14163;-26.142;27.992;2023-03-16T16:41:07;29.10;93.50
26479;DHT22;14163;-26.142;27.992;2023-03-16T16:43:38;29.10;93.40
26479;DHT22;14163;-26.142;27.992;2023-03-16T16:46:14;29.00;93.30
26479;DHT22;14163;-26.142;27.992;2023-03-16T16:48:45;28.90;93.70
26479;DHT22;14163;-26.142;27.992;2023-03-16T16:51:18;28.90;93.70
26479;DHT22;14163;-26.142;27.992;2023-03-16T16:53:48;28.90;92.80
26479;DHT22;14163;-26.142;27.992;2023-03-16T16:56:19;28.90;93.10
26479;DHT22;14163;-26.142;27.992;2023-03-16T16:58:50;28.80;92.90
26479;DHT22;14163;-26.142;27.992;2023-03-16T17:01:24;28.70;93.20
26479;DHT22;14163;-26.142;27.992;2023-03-16T17:03:54;28.70;93.50
26479;DHT22;14163;-26.142;27.992;2023-03-16T17:06:24;28.60;93.90
26479;DHT22;14163;-26.142;27.992;2023-03-16T17:08:53;28.70;94.20
26479;DHT22;14163;-26.142;27.992;2023-03-16T17:11:24;28.60;94.30
26479;DHT22;14163;-26.142;27.992;2023-03-16T17:13:57;28.50;94.50
26479;DHT22;14163;-26.142;27.992;2023-03-16T17:16:30;28.40;94.50
26479;DHT22;14163;-26.142;27.992;2023-03-16T17:18:59;28.40;94.00
26479;DHT22;14163;-26.142;27.992;2023-03-16T17:21:29;28.30;94.30
26479;DHT22;14163;-26.142;27.992;2023-03-16T17:23:59;28.30;94.80
26479;DHT22;14163;-26.142;27.992;2023-03-16T17:26:30;28.20;95.00
26479;DHT22;14163;-26.142;27.992;2023-03-16T17:29:01;28.20;95.40
26479;DHT22;14163;-26.142;27.992;2023-03-16T17:31:35;28.20;95.30
26479;DHT22;14163;-26.142;27.992;2023-03-16T17:34:15;28.20;95.10
26479;DHT22;14163;-26.142;27.992;2023-03-16T17:36:44;28.30;94.80
26479;DHT22;14163;-26.142;27.992;2023-03-16T17:39:17;28.20;94.20
26479;DHT22;14163;-26.142;27.992;2023-03-16T17:41:47;28.20;94.30
26479;DHT22;14163;-26.142;27.992;2023-03-16T17:44:16;28.10;94.40
26479;DHT22;14163;-26.142;27.992;2023-03-16T17:46:49;28.00;94.50
26479;DHT22;14163;-26.142;27.992;2023-03-16T17:49:18;28.00;94.30
26479;DHT22;14163;-26.142;27.992;2023-03-16T17:51:50;28.00;94.40
26479;DHT22;14163;-26.142;27.992;2023-03-16T17:54:19;27.90;94.50
26479;DHT22;14163;-26.142;27.992;2023-03-16T17:56:50;27.90;94.70
26479;DHT22;14163;-26.142;27.992;2023-03-16T17:59:20;27.80;94.90
26479;DHT22;14163;-26.142;27.992;2023-03-16T20:06:24;22.10;99.90
26479;DHT22;14163;-26.142;27.992;2023-03-16T20:08:53;21.80;99.90
26479;DHT22;14163;-26.142;27.992;2023-03-16T20:11:26;22.40;99.90
26479;DHT22;14163;-26.142;27.992;2023-03-16T20:13:56;23.20;99.90
26479;DHT22;14163;-26.142;27.992;2023-03-16T20:16:28;23.90;99.90
26479;DHT22;14163;-26.142;27.992;2023-03-16T20:19:00;24.40;99.90
26479;DHT22;14163;-26.142;27.992;2023-03-16T20:21:32;24.80;99.90
26479;DHT22;14163;-26.142;27.992;2023-03-16T20:24:02;25.10;99.90
26479;DHT22;14163;-26.142;27.992;2023-03-16T20:26:31;25.30;99.90
26479;DHT22;14163;-26.142;27.992;2023-03-16T20:29:01;25.50;99.90
26479;DHT22;14163;-26.142;27.992;2023-03-16T20:31:33;25.50;99.90
26479;DHT22;14163;-26.142;27.992;2023-03-16T20:34:04;25.60;99.90
26479;DHT22;14163;-26.142;27.992;2023-03-16T20:36:44;25.70;99.90
26479;DHT22;14163;-26.142;27.992;2023-03-16T20:39:14;25.70;99.90
26479;DHT22;14163;-26.142;27.992;2023-03-16T20:41:43;25.80;99.90
26479;DHT22;14163;-26.142;27.992;2023-03-16T20:44:14;25.80;99.90
26479;DHT22;14163;-26.142;27.992;2023-03-16T20:46:44;25.80;99.90
26479;DHT22;14163;-26.142;27.992;2023-03-16T20:49:28;25.80;99.90
26479;DHT22;14163;-26.142;27.992;2023-03-16T20:52:00;25.80;99.90
26479;DHT22;14163;-26.142;27.992;2023-03-16T20:54:29;25.80;99.90
26479;DHT22;14163;-26.142;27.992;2023-03-16T20:56:58;25.80;99.90
26479;DHT22;14163;-26.142;27.992;2023-03-16T20:59:28;25.70;99.90
26479;DHT22;14163;-26.142;27.992;2023-03-16T21:01:58;25.70;99.90
26479;DHT22;14163;-26.142;27.992;2023-03-16T21:04:29;25.70;99.90
26479;DHT22;14163;-26.142;27.992;2023-03-16T21:07:00;25.70;99.90
26479;DHT22;14163;-26.142;27.992;2023-03-16T21:09:29;25.60;99.90
26479;DHT22;14163;-26.142;27.992;2023-03-16T21:11:59;25.50;99.90
26479;DHT22;14163;-26.142;27.992;2023-03-16T21:14:28;25.40;99.90
26479;DHT22;14163;-26.142;27.992;2023-03-16T21:16:58;25.40;99.90
26479;DHT22;14163;-26.142;27.992;2023-03-16T21:19:28;25.30;99.90
26479;DHT22;14163;-26.142;27.992;2023-03-16T21:21:57;25.30;99.90
26479;DHT22;14163;-26.142;27.992;2023-03-16T21:24:28;25.30;99.90
26479;DHT22;14163;-26.142;27.992;2023-03-16T21:26:57;25.20;99.90
26479;DHT22;14163;-26.142;27.992;2023-03-16T21:29:27;25.20;99.90
26479;DHT22;14163;-26.142;27.992;2023-03-16T21:31:58;25.20;99.90
26479;DHT22;14163;-26.142;27.992;2023-03-16T21:34:31;25.20;99.90
26479;DHT22;14163;-26.142;27.992;2023-03-16T21:37:01;25.30;99.90
26479;DHT22;14163;-26.142;27.992;2023-03-16T21:39:32;25.30;99.90
26479;DHT22;14163;-26.142;27.992;2023-03-16T21:42:02;25.30;99.90
26479;DHT22;14163;-26.142;27.992;2023-03-16T21:44:31;25.30;99.90
26479;DHT22;14163;-26.142;27.992;2023-03-16T21:47:00;25.30;99.90
26479;DHT22;14163;-26.142;27.992;2023-03-16T21:49:29;25.30;99.90
26479;DHT22;14163;-26.142;27.992;2023-03-16T21:51:59;25.30;99.90
26479;DHT22;14163;-26.142;27.992;2023-03-16T21:54:28;25.30;99.90
26479;DHT22;14163;-26.142;27.992;2023-03-16T21:56:59;25.30;99.90
26479;DHT22;14163;-26.142;27.992;2023-03-16T21:59:28;25.30;99.90
26479;DHT22;14163;-26.142;27.992;2023-03-16T22:01:57;25.20;99.90